Terminal Aerodrome Forecast
Issued by NWS Bismarck, ND

Home | Current Version | Previous Version | Graphics & Text | Print | Product List | Glossary On
Versions: 1 2 3 4 5 6 7 8 9 10 11 12 13 14 15 16 17 18
555
FTUS43 KBIS 091130
TAFISN
TAF
KISN 091130Z 0912/1012 VRB03KT P6SM OVC050
     FM091600 VRB03KT 5SM -SN OVC025
     FM091800 VRB03KT 2SM -SN OVC015
     FM092300 VRB03KT P6SM OVC025
     FM100700 21005KT P6SM OVC050
     FM101100 28006KT P6SM BKN080=

USA.gov is the U.S. government's official web portal to all federal, state and local government web resources and services.